sensor_id;sensor_type;location;lat;lon;timestamp;temperature;humidity
19309;DHT22;9789;50.010;19.890;2022-09-27T18:57:50;23.40;90.80
19309;DHT22;9789;50.010;19.890;2022-09-27T19:00:18;23.20;91.50
19309;DHT22;9789;50.010;19.890;2022-09-27T19:02:47;23.10;91.90
19309;DHT22;9789;50.010;19.890;2022-09-27T19:05:15;23.00;92.10
19309;DHT22;9789;50.010;19.890;2022-09-27T19:07:44;22.90;92.40
19309;DHT22;9789;50.010;19.890;2022-09-27T19:10:12;22.80;92.50
19309;DHT22;9789;50.010;19.890;2022-09-27T19:12:41;22.80;92.60
19309;DHT22;9789;50.010;19.890;2022-09-27T19:15:10;22.80;93.20
19309;DHT22;9789;50.010;19.890;2022-09-27T19:17:38;22.70;93.10
19309;DHT22;9789;50.010;19.890;2022-09-27T19:20:07;22.70;93.20
19309;DHT22;9789;50.010;19.890;2022-09-27T19:22:37;22.80;93.60
19309;DHT22;9789;50.010;19.890;2022-09-27T19:25:06;22.80;94.80
19309;DHT22;9789;50.010;19.890;2022-09-27T19:27:34;22.90;96.30
19309;DHT22;9789;50.010;19.890;2022-09-27T19:30:11;22.90;96.70
19309;DHT22;9789;50.010;19.890;2022-09-27T19:32:40;22.90;97.10
19309;DHT22;9789;50.010;19.890;2022-09-27T19:35:08;22.90;97.60
19309;DHT22;9789;50.010;19.890;2022-09-27T19:37:37;22.90;98.10
19309;DHT22;9789;50.010;19.890;2022-09-27T19:40:06;22.90;98.60
19309;DHT22;9789;50.010;19.890;2022-09-27T19:42:34;22.80;98.70
19309;DHT22;9789;50.010;19.890;2022-09-27T19:45:02;22.80;99.10
19309;DHT22;9789;50.010;19.890;2022-09-27T19:47:38;22.80;99.00
19309;DHT22;9789;50.010;19.890;2022-09-27T19:50:07;22.80;99.00
19309;DHT22;9789;50.010;19.890;2022-09-27T19:52:35;22.90;99.00
19309;DHT22;9789;50.010;19.890;2022-09-27T19:55:05;22.90;99.00
19309;DHT22;9789;50.010;19.890;2022-09-27T19:57:33;22.90;99.10
19309;DHT22;9789;50.010;19.890;2022-09-27T20:00:02;23.00;99.00
19309;DHT22;9789;50.010;19.890;2022-09-27T20:02:30;23.00;98.90
19309;DHT22;9789;50.010;19.890;2022-09-27T20:04:59;23.00;98.90
19309;DHT22;9789;50.010;19.890;2022-09-27T20:07:28;23.10;98.90
19309;DHT22;9789;50.010;19.890;2022-09-27T20:09:56;23.10;98.70
19309;DHT22;9789;50.010;19.890;2022-09-27T20:12:24;23.10;99.10
19309;DHT22;9789;50.010;19.890;2022-09-27T20:14:52;23.20;99.30
19309;DHT22;9789;50.010;19.890;2022-09-27T20:17:20;23.20;99.50
19309;DHT22;9789;50.010;19.890;2022-09-27T20:19:48;23.20;99.20
19309;DHT22;9789;50.010;19.890;2022-09-27T20:22:18;23.10;99.40
19309;DHT22;9789;50.010;19.890;2022-09-27T20:24:46;23.10;99.50
19309;DHT22;9789;50.010;19.890;2022-09-27T20:27:14;23.20;99.50
19309;DHT22;9789;50.010;19.890;2022-09-27T20:29:42;23.20;99.60
19309;DHT22;9789;50.010;19.890;2022-09-27T20:32:10;23.20;99.50
19309;DHT22;9789;50.010;19.890;2022-09-27T20:34:53;23.10;99.60
19309;DHT22;9789;50.010;19.890;2022-09-27T20:37:23;23.20;99.70
19309;DHT22;9789;50.010;19.890;2022-09-27T20:39:51;23.20;99.80
19309;DHT22;9789;50.010;19.890;2022-09-27T20:42:19;23.20;99.80
19309;DHT22;9789;50.010;19.890;2022-09-27T20:44:47;23.10;99.70
19309;DHT22;9789;50.010;19.890;2022-09-27T20:47:20;23.10;99.50
19309;DHT22;9789;50.010;19.890;2022-09-27T20:49:48;23.10;99.30
19309;DHT22;9789;50.010;19.890;2022-09-27T20:52:16;23.10;99.60
19309;DHT22;9789;50.010;19.890;2022-09-27T20:54:46;23.10;99.70
19309;DHT22;9789;50.010;19.890;2022-09-27T20:57:15;23.10;99.70
19309;DHT22;9789;50.010;19.890;2022-09-27T20:59:43;23.10;99.70
19309;DHT22;9789;50.010;19.890;2022-09-27T21:02:11;23.10;99.90
19309;DHT22;9789;50.010;19.890;2022-09-27T21:04:39;23.10;99.90
19309;DHT22;9789;50.010;19.890;2022-09-27T21:07:07;23.00;99.90
19309;DHT22;9789;50.010;19.890;2022-09-27T21:09:35;23.00;99.70
19309;DHT22;9789;50.010;19.890;2022-09-27T21:12:05;23.00;99.90
19309;DHT22;9789;50.010;19.890;2022-09-27T21:14:34;23.00;99.90
19309;DHT22;9789;50.010;19.890;2022-09-27T21:17:02;23.00;99.70
19309;DHT22;9789;50.010;19.890;2022-09-27T21:19:30;23.00;99.70
19309;DHT22;9789;50.010;19.890;2022-09-27T21:22:00;23.00;99.70
19309;DHT22;9789;50.010;19.890;2022-09-27T21:24:28;23.00;99.70
19309;DHT22;9789;50.010;19.890;2022-09-27T21:26:56;23.00;99.90
19309;DHT22;9789;50.010;19.890;2022-09-27T21:29:27;23.00;99.90
19309;DHT22;9789;50.010;19.890;2022-09-27T21:31:55;23.00;99.90
19309;DHT22;9789;50.010;19.890;2022-09-27T21:34:23;23.00;99.90
19309;DHT22;9789;50.010;19.890;2022-09-27T21:36:51;23.00;99.90
19309;DHT22;9789;50.010;19.890;2022-09-27T21:39:19;23.00;99.90
19309;DHT22;9789;50.010;19.890;2022-09-27T21:41:48;23.00;99.90
19309;DHT22;9789;50.010;19.890;2022-09-27T21:44:16;23.00;99.90
19309;DHT22;9789;50.010;19.890;2022-09-27T21:46:45;23.00;99.90
19309;DHT22;9789;50.010;19.890;2022-09-27T21:49:16;23.00;99.90
19309;DHT22;9789;50.010;19.890;2022-09-27T21:51:44;23.00;99.90
19309;DHT22;9789;50.010;19.890;2022-09-27T21:54:13;23.00;99.90
19309;DHT22;9789;50.010;19.890;2022-09-27T21:56:43;23.00;99.90
19309;DHT22;9789;50.010;19.890;2022-09-27T21:59:12;23.00;99.90
19309;DHT22;9789;50.010;19.890;2022-09-27T22:01:42;23.00;99.90
19309;DHT22;9789;50.010;19.890;2022-09-27T22:04:12;23.00;99.90
19309;DHT22;9789;50.010;19.890;2022-09-27T22:06:40;23.00;99.90
19309;DHT22;9789;50.010;19.890;2022-09-27T22:09:12;23.00;99.90
19309;DHT22;9789;50.010;19.890;2022-09-27T22:11:42;23.00;99.90
19309;DHT22;9789;50.010;19.890;2022-09-27T22:14:12;22.90;99.90
19309;DHT22;9789;50.010;19.890;2022-09-27T22:16:41;22.90;99.90
19309;DHT22;9789;50.010;19.890;2022-09-27T22:19:10;22.90;99.90
19309;DHT22;9789;50.010;19.890;2022-09-27T22:21:40;22.90;99.90
19309;DHT22;9789;50.010;19.890;2022-09-27T22:24:11;22.90;99.90
19309;DHT22;9789;50.010;19.890;2022-09-27T22:26:40;22.90;99.90
19309;DHT22;9789;50.010;19.890;2022-09-27T22:29:08;22.90;99.90
19309;DHT22;9789;50.010;19.890;2022-09-27T22:31:36;22.90;99.90
19309;DHT22;9789;50.010;19.890;2022-09-27T22:34:06;22.90;99.90
19309;DHT22;9789;50.010;19.890;2022-09-27T22:36:36;22.90;99.90
19309;DHT22;9789;50.010;19.890;2022-09-27T22:39:07;22.90;99.90
19309;DHT22;9789;50.010;19.890;2022-09-27T22:41:35;22.90;99.90
19309;DHT22;9789;50.010;19.890;2022-09-27T22:44:04;22.90;99.90
19309;DHT22;9789;50.010;19.890;2022-09-27T22:46:33;22.90;99.90
19309;DHT22;9789;50.010;19.890;2022-09-27T22:49:01;22.90;99.90
19309;DHT22;9789;50.010;19.890;2022-09-27T22:51:29;22.80;99.90
19309;DHT22;9789;50.010;19.890;2022-09-27T22:53:58;22.90;99.90
19309;DHT22;9789;50.010;19.890;2022-09-27T22:56:27;22.80;99.90
19309;DHT22;9789;50.010;19.890;2022-09-27T22:58:55;22.80;99.90
19309;DHT22;9789;50.010;19.890;2022-09-27T23:01:24;22.80;99.90
19309;DHT22;9789;50.010;19.890;2022-09-27T23:03:53;22.80;99.90
19309;DHT22;9789;50.010;19.890;2022-09-27T23:06:21;22.80;99.90
19309;DHT22;9789;50.010;19.890;2022-09-27T23:08:50;22.80;99.90
19309;DHT22;9789;50.010;19.890;2022-09-27T23:11:21;22.80;99.90
19309;DHT22;9789;50.010;19.890;2022-09-27T23:13:50;22.80;99.90
19309;DHT22;9789;50.010;19.890;2022-09-27T23:16:20;22.80;99.90
19309;DHT22;9789;50.010;19.890;2022-09-27T23:18:51;22.80;99.90
19309;DHT22;9789;50.010;19.890;2022-09-27T23:21:20;22.80;99.90
19309;DHT22;9789;50.010;19.890;2022-09-27T23:23:53;22.80;99.90
19309;DHT22;9789;50.010;19.890;2022-09-27T23:26:23;22.80;99.90
19309;DHT22;9789;50.010;19.890;2022-09-27T23:28:54;22.80;99.90
19309;DHT22;9789;50.010;19.890;2022-09-27T23:31:22;22.80;99.90
19309;DHT22;9789;50.010;19.890;2022-09-27T23:33:51;22.80;99.90
19309;DHT22;9789;50.010;19.890;2022-09-27T23:36:21;22.80;99.90
19309;DHT22;9789;50.010;19.890;2022-09-27T23:38:53;22.80;99.90
19309;DHT22;9789;50.010;19.890;2022-09-27T23:41:21;22.80;99.90
19309;DHT22;9789;50.010;19.890;2022-09-27T23:43:49;22.80;99.90
19309;DHT22;9789;50.010;19.890;2022-09-27T23:46:20;22.80;99.90
19309;DHT22;9789;50.010;19.890;2022-09-27T23:48:48;22.80;99.90
19309;DHT22;9789;50.010;19.890;2022-09-27T23:51:16;22.80;99.90
19309;DHT22;9789;50.010;19.890;2022-09-27T23:53:44;22.80;99.90
19309;DHT22;9789;50.010;19.890;2022-09-27T23:56:15;22.80;99.90
19309;DHT22;9789;50.010;19.890;2022-09-27T23:58:44;22.80;99.90
